Lowell, Arizona
Current Conditions -  °F | °C
As of 9:56 PM on Tuesday 25 Nov 2014 (Local Time) from KDUG Reporting Station
Clear Clear  
Wind Chill: 31°   Ceiling: Unl
Heat Index: 35°   Visibility: 10mi
Dew Point:   Wind: 5mph
Humidity: 26%   Direction: 190°S
Pressure: 30.34"   Gusts: NA
Location:  31.4799°N, 109.96°W
Report Text: KDUG 260456Z AUTO 19004KT 10SM CLR 02/M16 A3034 RMK AO2 SLP263 T00171161
Loading
Personal Weather Stations






























Interactive Weather Map New forecast layout! Learn more

10-Day Weather Forecast

Advertisements
Track Severe Weather on mobile